Time;durP1;ratioP1;P1;durP2;ratioP2;P2;SDS_P1;SDS_P2;PMS_P1;PMS_P2;Temp;Humidity;BMP_temperature;BMP_pressure;BME280_temperature;BME280_humidity;BME280_pressure;Samples;Min_cycle;Max_cycle;Signal;HPM_P1;HPM_P2
2022/04/18 00:02:09;;;;;;;29.38;23.50;;;7.30;99.90;;;;;;5015674;28;94753;-35
2022/04/18 00:04:35;;;;;;;31.63;25.25;;;7.20;99.90;;;;;;5015984;28;95474;-37
2022/04/18 00:07:01;;;;;;;26.33;23.27;;;7.10;99.90;;;;;;5016269;28;93097;-33
2022/04/18 00:09:30;;;;;;;26.35;23.42;;;7.10;99.90;;;;;;5016397;28;92444;-36
2022/04/18 00:11:59;;;;;;;;;;;7.10;99.90;;;;;;5015915;28;94300;-33
2022/04/18 00:14:24;;;;;;;28.45;24.60;;;7.20;99.90;;;;;;5017927;28;94027;-39
2022/04/18 00:16:50;;;;;;;27.05;24.15;;;7.20;99.90;;;;;;5015501;28;93994;-37
2022/04/18 00:19:16;;;;;;;27.58;24.60;;;7.20;99.90;;;;;;5016127;28;93426;-37
2022/04/18 00:21:41;;;;;;;28.52;25.67;;;7.30;99.90;;;;;;5016047;28;94348;-33
2022/04/18 00:24:08;;;;;;;29.27;24.80;;;7.20;99.90;;;;;;5015291;28;95456;-34
2022/04/18 00:26:37;;;;;;;28.98;23.83;;;7.20;99.90;;;;;;5015666;28;93958;-38
2022/04/18 00:31:28;;;;;;;29.55;24.38;;;7.20;99.90;;;;;;4974226;28;94961;-34
2022/04/18 00:33:54;;;;;;;27.42;24.42;;;7.10;99.90;;;;;;4975748;28;94390;-36
2022/04/18 00:36:19;;;;;;;30.02;24.50;;;7.10;99.90;;;;;;4976288;28;92836;-34
2022/04/18 00:38:45;;;;;;;29.67;25.63;;;6.90;99.90;;;;;;4975099;28;93840;-33
2022/04/18 00:41:11;;;;;;;27.50;24.60;;;6.90;99.90;;;;;;4975115;28;95458;-38
2022/04/18 00:43:47;;;;;;;29.35;24.48;;;6.90;99.90;;;;;;4975380;28;95933;-34
2022/04/18 00:46:15;;;;;;;35.28;24.88;;;7.00;99.90;;;;;;4976266;28;93079;-39
2022/04/18 00:48:41;;;;;;;33.30;25.90;;;7.10;99.90;;;;;;4979047;28;93659;-38
2022/04/18 00:51:13;;;;;;;28.38;24.95;;;6.90;99.90;;;;;;4962174;28;94387;-37
2022/04/18 00:53:40;;;;;;;31.63;25.27;;;6.90;99.90;;;;;;4941331;28;96567;-36
2022/04/18 00:56:08;;;;;;;29.92;25.17;;;6.70;99.90;;;;;;4959452;28;93022;-37
2022/04/18 00:58:34;;;;;;;26.90;24.23;;;6.60;99.90;;;;;;4959240;28;93045;-35
2022/04/18 01:01:00;;;;;;;29.60;22.98;;;6.60;99.90;;;;;;4958968;28;94391;-38
2022/04/18 01:03:26;;;;;;;32.10;25.98;;;6.50;99.90;;;;;;4958766;28;94504;-36
2022/04/18 01:05:52;;;;;;;28.58;24.42;;;6.60;99.90;;;;;;4958329;28;95477;-37
2022/04/18 01:08:18;;;;;;;29.08;25.75;;;6.70;99.90;;;;;;4959378;28;92558;-37
2022/04/18 01:10:44;;;;;;;27.88;22.75;;;6.70;99.90;;;;;;4957888;28;94681;-38
2022/04/18 01:13:11;;;;;;;27.88;24.98;;;6.80;99.90;;;;;;4958295;28;94625;-36
2022/04/18 01:15:36;;;;;;;25.20;22.55;;;6.80;99.90;;;;;;4958836;28;92247;-34
2022/04/18 01:18:02;;;;;;;29.83;23.35;;;6.80;99.90;;;;;;4958824;28;94236;-36
2022/04/18 01:20:34;;;;;;;30.17;25.15;;;6.70;99.90;;;;;;4958847;28;95230;-36
2022/04/18 01:23:01;;;;;;;26.25;23.67;;;6.80;99.90;;;;;;4958594;28;94544;-40
2022/04/18 01:30:56;;;;;;;29.02;23.55;;;6.50;99.90;;;;;;4957616;28;96003;-36
2022/04/18 01:33:22;;;;;;;26.88;24.00;;;6.50;99.90;;;;;;4958820;28;95875;-36
2022/04/18 01:35:47;;;;;;;30.00;22.63;;;6.60;99.90;;;;;;4958044;28;92698;-36
2022/04/18 01:38:13;;;;;;;27.08;22.60;;;6.50;99.90;;;;;;4958568;28;92852;-37
2022/04/18 01:40:39;;;;;;;28.13;23.45;;;6.50;99.90;;;;;;4957345;28;95308;-37
2022/04/18 01:43:06;;;;;;;28.77;23.27;;;6.60;99.90;;;;;;4958663;28;94516;-39
2022/04/18 01:45:31;;;;;;;27.33;23.08;;;6.50;99.90;;;;;;4958522;28;92714;-35
2022/04/18 01:47:57;;;;;;;26.63;23.80;;;6.50;99.90;;;;;;4958079;28;92010;-34
2022/04/18 01:50:22;;;;;;;27.92;23.90;;;6.50;99.90;;;;;;4958010;28;95012;-36
2022/04/18 01:52:48;;;;;;;27.58;22.38;;;6.50;99.90;;;;;;4957958;28;94665;-35
2022/04/18 01:55:13;;;;;;;26.73;23.13;;;6.40;99.90;;;;;;4958198;28;93212;-34
2022/04/18 01:57:39;;;;;;;26.55;22.83;;;6.30;99.90;;;;;;4940096;28;93161;-35
2022/04/18 02:00:05;;;;;;;24.65;22.15;;;6.10;99.90;;;;;;4957918;28;95171;-34
2022/04/18 02:02:31;;;;;;;28.77;22.55;;;6.20;99.90;;;;;;4958074;28;96680;-35
2022/04/18 02:04:56;;;;;;;27.38;23.65;;;6.10;99.90;;;;;;4958008;28;94459;-33
2022/04/18 02:07:22;;;;;;;28.30;23.98;;;6.00;99.90;;;;;;4958165;28;92916;-35
2022/04/18 02:09:47;;;;;;;25.60;22.38;;;6.00;99.90;;;;;;4957973;28;95080;-35
2022/04/18 02:12:13;;;;;;;30.85;23.77;;;6.00;99.90;;;;;;4958254;28;94277;-34
2022/04/18 02:14:39;;;;;;;28.58;23.83;;;6.10;99.90;;;;;;4957884;28;92135;-36
2022/04/18 02:17:04;;;;;;;30.10;22.92;;;6.10;99.90;;;;;;4957807;28;93055;-35
2022/04/18 02:19:30;;;;;;;25.13;22.23;;;6.10;99.90;;;;;;4957351;28;94396;-34
2022/04/18 02:21:56;;;;;;;30.35;23.63;;;6.10;99.90;;;;;;4957293;28;96452;-34
2022/04/18 02:24:21;;;;;;;23.95;20.40;;;6.10;99.90;;;;;;4958319;28;94835;-33
2022/04/18 02:26:47;;;;;;;28.15;23.02;;;6.10;99.90;;;;;;4957077;28;94326;-35
2022/04/18 02:29:12;;;;;;;27.55;22.95;;;6.20;99.90;;;;;;4957087;28;96015;-39
2022/04/18 02:34:22;;;;;;;25.60;22.38;;;6.30;99.90;;;;;;4958000;28;93291;-34
2022/04/18 02:36:47;;;;;;;26.20;22.45;;;6.20;99.90;;;;;;4958132;28;93272;-35
2022/04/18 02:39:13;;;;;;;25.33;22.30;;;6.20;99.90;;;;;;4956726;28;94027;-34
2022/04/18 02:41:39;;;;;;;29.30;22.55;;;6.20;99.90;;;;;;4957028;28;94477;-36
2022/04/18 02:44:05;;;;;;;26.33;23.83;;;6.10;99.90;;;;;;4956503;28;93918;-35
2022/04/18 02:46:30;;;;;;;28.02;23.10;;;6.10;99.90;;;;;;4957194;28;93963;-38
2022/04/18 02:48:56;;;;;;;28.20;23.10;;;6.10;99.90;;;;;;4957069;28;94927;-33
2022/04/18 02:51:27;;;;;;;27.85;22.33;;;6.10;99.90;;;;;;4956538;28;94710;-39
2022/04/18 02:53:56;;;;;;;25.92;23.10;;;6.10;99.90;;;;;;4957259;28;93398;-33
2022/04/18 02:56:22;;;;;;;23.73;21.30;;;6.10;99.90;;;;;;4956747;28;92582;-35
2022/04/18 02:58:48;;;;;;;26.85;22.65;;;6.10;99.90;;;;;;4957447;28;95354;-35
2022/04/18 03:01:13;;;;;;;24.13;21.55;;;6.10;99.90;;;;;;4957218;28;95340;-36
2022/04/18 03:03:39;;;;;;;24.45;21.60;;;6.10;99.90;;;;;;4956310;28;94146;-38
2022/04/18 03:06:05;;;;;;;26.48;23.73;;;6.10;99.90;;;;;;4956916;28;94161;-35
2022/04/18 03:08:31;;;;;;;23.75;21.27;;;6.10;99.90;;;;;;4955462;28;94861;-37
2022/04/18 03:11:04;;;;;;;24.02;21.58;;;5.90;99.90;;;;;;4956830;28;95526;-34
2022/04/18 03:13:32;;;;;;;28.23;23.15;;;5.90;99.90;;;;;;4957188;28;93842;-35
2022/04/18 03:15:58;;;;;;;26.77;23.77;;;5.80;99.90;;;;;;4956639;28;93822;-36
2022/04/18 03:18:24;;;;;;;25.08;22.30;;;5.90;99.90;;;;;;4956968;28;94697;-32
2022/04/18 03:20:50;;;;;;;25.45;22.35;;;5.80;99.90;;;;;;4956633;28;95590;-35
2022/04/18 03:23:16;;;;;;;28.23;23.10;;;5.80;99.90;;;;;;4957655;28;93257;-35
2022/04/18 03:25:41;;;;;;;25.40;22.60;;;5.80;99.90;;;;;;4956667;28;93402;-32
2022/04/18 03:28:07;;;;;;;24.63;22.13;;;5.70;99.90;;;;;;4956704;28;95003;-35
2022/04/18 03:30:32;;;;;;;28.55;24.02;;;5.70;99.90;;;;;;4955805;28;94618;-33
2022/04/18 03:32:58;;;;;;;25.55;22.60;;;5.70;99.90;;;;;;4956380;28;93400;-34
2022/04/18 03:35:23;;;;;;;25.33;22.70;;;5.70;99.90;;;;;;4956967;28;94568;-35
2022/04/18 03:40:34;;;;;;;27.48;24.20;;;5.60;99.90;;;;;;4956727;28;94448;-34
2022/04/18 03:42:59;;;;;;;24.80;22.15;;;5.60;99.90;;;;;;4956985;28;93628;-35
2022/04/18 03:45:25;;;;;;;27.17;24.27;;;5.50;99.90;;;;;;4956963;28;94645;-39
2022/04/18 03:47:51;;;;;;;27.85;23.13;;;5.50;99.90;;;;;;4956271;28;94750;-36
2022/04/18 03:50:16;;;;;;;24.25;22.08;;;5.50;99.90;;;;;;4956291;28;94309;-35
2022/04/18 03:52:42;;;;;;;27.85;23.58;;;5.50;99.90;;;;;;4956859;28;94788;-36
2022/04/18 03:55:08;;;;;;;26.60;22.48;;;5.50;99.90;;;;;;4956440;28;93177;-35
2022/04/18 03:57:33;;;;;;;24.08;21.58;;;5.50;99.90;;;;;;4956291;28;96811;-34
2022/04/18 03:59:59;;;;;;;27.23;23.17;;;5.50;99.90;;;;;;4956177;28;95466;-37
2022/04/18 04:02:24;;;;;;;28.48;22.80;;;5.50;99.90;;;;;;4956074;28;92880;-35
2022/04/18 04:04:50;;;;;;;31.17;23.83;;;5.40;99.90;;;;;;4956467;28;94099;-36
2022/04/18 04:07:16;;;;;;;27.25;24.25;;;5.40;99.90;;;;;;4955987;28;94876;-36
2022/04/18 04:09:41;;;;;;;31.20;23.88;;;5.40;99.90;;;;;;4956139;28;94900;-38
2022/04/18 04:12:08;;;;;;;30.13;23.08;;;5.40;99.90;;;;;;4956462;28;93177;-38
2022/04/18 04:14:34;;;;;;;27.15;23.23;;;5.50;99.90;;;;;;4956595;28;92174;-38
2022/04/18 04:17:00;;;;;;;27.75;22.88;;;5.50;99.90;;;;;;4956181;28;95404;-36
2022/04/18 04:19:26;;;;;;;27.63;23.88;;;5.50;99.90;;;;;;4956167;28;94691;-33
2022/04/18 04:21:51;;;;;;;26.25;23.10;;;5.50;99.90;;;;;;4959217;28;93519;-35
2022/04/18 04:24:17;;;;;;;29.00;24.98;;;5.50;99.90;;;;;;4959755;28;94690;-32
2022/04/18 04:26:44;;;;;;;28.08;23.33;;;5.50;99.90;;;;;;4959297;28;95412;-37
2022/04/18 04:29:10;;;;;;;30.10;24.73;;;5.50;99.90;;;;;;4959534;28;94280;-32
2022/04/18 04:31:35;;;;;;;30.83;23.83;;;5.50;99.90;;;;;;4959570;28;94565;-34
2022/04/18 04:34:01;;;;;;;31.20;24.15;;;5.50;99.90;;;;;;4959807;28;93404;-35
2022/04/18 04:36:26;;;;;;;30.38;23.48;;;5.60;99.90;;;;;;4959066;28;95168;-36
2022/04/18 04:38:52;;;;;;;31.45;26.20;;;5.90;99.90;;;;;;4959444;28;94507;-34
2022/04/18 04:41:18;;;;;;;37.90;27.33;;;6.00;99.90;;;;;;4941652;28;92314;-35
2022/04/18 04:43:43;;;;;;;30.65;27.23;;;6.10;99.90;;;;;;4958951;28;94427;-37
2022/04/18 04:46:09;;;;;;;39.33;31.15;;;6.20;99.90;;;;;;4958944;28;95127;-33
2022/04/18 04:48:35;;;;;;;37.88;28.08;;;6.30;99.90;;;;;;4958346;28;95137;-35
2022/04/18 04:51:00;;;;;;;35.35;26.88;;;6.60;99.90;;;;;;4959320;28;94534;-37
2022/04/18 04:53:26;;;;;;;32.17;25.30;;;6.90;99.90;;;;;;4958948;28;93437;-37
2022/04/18 04:55:52;;;;;;;30.08;24.98;;;7.20;99.90;;;;;;4958784;28;94773;-36
2022/04/18 04:58:17;;;;;;;34.20;26.00;;;7.20;99.90;;;;;;4959134;28;96497;-34
2022/04/18 05:00:43;;;;;;;34.28;26.98;;;7.00;99.90;;;;;;4958655;28;94644;-34
2022/04/18 05:03:09;;;;;;;42.47;29.95;;;6.80;99.90;;;;;;4959843;28;92748;-37
2022/04/18 05:05:34;;;;;;;46.30;31.65;;;6.50;99.90;;;;;;4957226;28;94774;-39
2022/04/18 05:08:00;;;;;;;40.10;30.75;;;6.40;99.90;;;;;;4959348;28;94443;-34
2022/04/18 05:10:26;;;;;;;34.33;30.02;;;6.30;99.90;;;;;;4958947;28;93483;-36
2022/04/18 05:12:52;;;;;;;40.45;30.23;;;6.30;99.90;;;;;;4958127;28;94928;-39
2022/04/18 05:15:17;;;;;;;34.55;26.42;;;6.30;99.90;;;;;;4959032;28;94744;-35
2022/04/18 05:17:43;;;;;;;28.42;23.92;;;6.30;99.90;;;;;;4957698;28;95117;-34
2022/04/18 05:20:09;;;;;;;28.38;23.20;;;6.40;99.90;;;;;;4959268;28;92304;-34
2022/04/18 05:22:35;;;;;;;26.95;22.50;;;6.40;99.90;;;;;;4958649;28;92295;-38
2022/04/18 05:25:01;;;;;;;26.27;22.38;;;6.50;99.90;;;;;;4958615;28;94597;-34
2022/04/18 05:27:26;;;;;;;31.80;22.90;;;6.50;99.90;;;;;;4940695;28;95580;-37
2022/04/18 05:29:52;;;;;;;28.35;24.60;;;6.60;99.90;;;;;;4957405;28;93458;-34
2022/04/18 05:32:17;;;;;;;36.17;26.58;;;6.60;99.90;;;;;;4958021;28;93604;-36
2022/04/18 05:34:43;;;;;;;33.00;26.63;;;6.70;99.90;;;;;;4957480;28;96325;-35
2022/04/18 05:37:09;;;;;;;36.83;27.30;;;6.70;99.90;;;;;;4958234;28;95611;-33
2022/04/18 05:39:35;;;;;;;36.05;28.33;;;6.80;99.90;;;;;;4958095;28;93702;-35
2022/04/18 05:42:01;;;;;;;32.13;27.60;;;6.80;99.90;;;;;;4957927;28;93926;-37
2022/04/18 05:44:27;;;;;;;38.45;28.38;;;6.80;99.90;;;;;;4958365;28;94561;-37
2022/04/18 05:46:52;;;;;;;34.33;27.02;;;6.80;99.90;;;;;;4957520;28;94507;-34
2022/04/18 05:49:18;;;;;;;29.65;25.27;;;6.80;99.90;;;;;;4958902;28;92358;-36
2022/04/18 05:51:44;;;;;;;28.60;23.75;;;6.80;99.90;;;;;;4957869;28;92545;-34
2022/04/18 05:54:10;;;;;;;27.38;22.17;;;6.80;99.90;;;;;;4958095;28;94660;-35
2022/04/18 05:56:35;;;;;;;24.65;20.67;;;6.90;99.90;;;;;;4957976;28;94637;-36
2022/04/18 05:59:01;;;;;;;25.75;20.08;;;6.90;99.90;;;;;;4957728;28;94384;-35
2022/04/18 06:01:28;;;;;;;26.05;19.98;;;6.90;99.90;;;;;;4958329;28;93701;-37
2022/04/18 06:03:55;;;;;;;22.08;19.75;;;7.00;99.90;;;;;;4956686;28;95060;-34
2022/04/18 06:06:21;;;;;;;23.55;20.10;;;7.10;99.90;;;;;;4957297;28;94568;-33
2022/04/18 06:08:47;;;;;;;23.85;20.48;;;7.10;99.90;;;;;;4958112;28;94109;-37
2022/04/18 06:11:12;;;;;;;20.20;18.00;;;7.00;99.90;;;;;;4958044;28;93592;-35
2022/04/18 06:13:38;;;;;;;18.52;16.13;;;7.10;99.90;;;;;;4957771;28;95008;-33
2022/04/18 06:16:04;;;;;;;19.27;17.42;;;7.20;99.90;;;;;;4958312;28;94607;-34
2022/04/18 06:18:29;;;;;;;19.85;17.75;;;7.20;99.90;;;;;;4957871;28;94421;-33
2022/04/18 06:20:55;;;;;;;20.98;18.25;;;7.30;99.90;;;;;;4957788;28;93397;-34
2022/04/18 06:23:21;;;;;;;23.48;20.63;;;7.40;99.90;;;;;;4956979;28;95720;-32
2022/04/18 06:25:46;;;;;;;23.45;19.95;;;7.50;99.90;;;;;;4957829;28;94165;-34
2022/04/18 06:28:12;;;;;;;22.58;18.85;;;7.60;99.90;;;;;;4957859;28;93664;-35
2022/04/18 06:30:38;;;;;;;22.08;18.10;;;7.80;99.90;;;;;;4956557;28;94967;-39
2022/04/18 06:33:04;;;;;;;21.65;19.23;;;7.90;99.90;;;;;;4957326;28;95002;-34
2022/04/18 06:35:30;;;;;;;20.35;18.23;;;8.00;99.90;;;;;;4956807;28;94732;-33
2022/04/18 06:37:56;;;;;;;20.13;17.60;;;8.20;99.90;;;;;;4957830;28;92113;-38
2022/04/18 06:40:21;;;;;;;27.20;21.80;;;8.30;99.90;;;;;;4957721;28;93442;-33
2022/04/18 06:42:47;;;;;;;30.33;24.58;;;8.50;99.90;;;;;;4913031;28;94899;-38
2022/04/18 06:45:13;;;;;;;37.80;27.23;;;8.60;99.90;;;;;;4955577;28;94619;-35
2022/04/18 06:47:39;;;;;;;34.65;27.30;;;8.80;99.90;;;;;;4956054;28;94039;-36
2022/04/18 06:50:12;;;;;;;34.67;27.00;;;9.00;99.90;;;;;;4957397;28;93470;-36
2022/04/18 06:52:44;;;;;;;27.20;24.38;;;9.10;99.90;;;;;;4956435;28;94613;-35
2022/04/18 06:55:10;;;;;;;33.22;24.50;;;9.40;99.90;;;;;;4957198;28;93840;-34
2022/04/18 06:57:35;;;;;;;29.52;21.15;;;9.70;99.90;;;;;;4956841;28;94817;-38
2022/04/18 07:00:05;;;;;;;26.23;21.88;;;9.80;99.90;;;;;;4957364;28;94596;-34
2022/04/18 07:02:31;;;;;;;26.13;20.17;;;10.00;99.90;;;;;;4957225;28;94931;-34
2022/04/18 07:05:02;;;;;;;22.40;20.08;;;10.10;99.40;;;;;;5097770;27;89745;-45
2022/04/18 07:07:28;;;;;;;23.58;19.27;;;10.50;95.50;;;;;;5077149;27;88055;-40
2022/04/18 07:09:53;;;;;;;19.63;17.58;;;10.80;95.60;;;;;;5077653;27;88580;-42
2022/04/18 07:12:22;;;;;;;20.10;13.98;;;11.10;93.00;;;;;;5077995;27;90701;-43
2022/04/18 07:14:49;;;;;;;17.13;15.32;;;11.30;82.60;;;;;;5077561;27;89992;-40
2022/04/18 07:17:14;;;;;;;18.05;15.93;;;11.80;81.80;;;;;;5074616;27;88241;-46
2022/04/18 07:19:40;;;;;;;15.48;13.50;;;11.90;77.80;;;;;;5075795;27;89879;-42
2022/04/18 07:22:06;;;;;;;16.90;14.15;;;12.10;71.30;;;;;;5074912;27;89604;-42
2022/04/18 07:24:32;;;;;;;15.88;14.15;;;12.50;73.50;;;;;;5074948;27;89618;-43
2022/04/18 07:27:00;;;;;;;13.68;12.38;;;12.50;71.80;;;;;;5075511;27;89299;-42
2022/04/18 07:29:29;;;;;;;13.07;11.75;;;12.60;66.70;;;;;;5073987;27;88918;-46
2022/04/18 07:31:55;;;;;;;15.77;12.93;;;12.70;67.30;;;;;;5061560;27;90428;-42
2022/04/18 07:34:21;;;;;;;14.80;12.85;;;12.50;66.70;;;;;;5053827;27;88432;-45
2022/04/18 07:36:46;;;;;;;16.13;14.02;;;13.00;66.70;;;;;;5053518;27;88820;-44
2022/04/18 07:39:12;;;;;;;17.83;13.68;;;13.30;66.50;;;;;;5053770;27;88235;-44
2022/04/18 07:41:38;;;;;;;14.13;12.02;;;13.50;65.30;;;;;;5053537;27;90252;-41
2022/04/18 07:44:04;;;;;;;14.32;11.98;;;13.50;63.40;;;;;;5053892;27;89106;-41
2022/04/18 07:46:30;;;;;;;16.05;13.80;;;13.70;63.70;;;;;;5053815;27;89407;-44
2022/04/18 07:48:56;;;;;;;14.35;12.23;;;14.30;62.50;;;;;;5054043;27;89199;-40
2022/04/18 07:51:32;;;;;;;16.40;11.93;;;14.10;61.30;;;;;;5053335;27;89989;-41
2022/04/18 07:53:58;;;;;;;16.88;12.77;;;14.30;60.00;;;;;;5053801;27;89737;-37
2022/04/18 07:56:25;;;;;;;13.60;11.60;;;14.60;60.10;;;;;;5053802;27;88480;-45
2022/04/18 07:58:51;;;;;;;11.90;10.80;;;14.60;59.40;;;;;;5053111;27;88406;-44
2022/04/18 08:01:19;;;;;;;11.65;10.27;;;14.80;58.30;;;;;;5054609;27;90238;-45
2022/04/18 08:03:45;;;;;;;12.48;11.18;;;14.40;54.90;;;;;;5053154;27;89262;-42
2022/04/18 08:06:11;;;;;;;12.40;10.30;;;14.90;55.60;;;;;;5053368;27;88086;-47
2022/04/18 08:08:37;;;;;;;13.65;11.82;;;15.10;56.00;;;;;;5053440;27;89122;-39
2022/04/18 08:11:03;;;;;;;11.82;10.02;;;15.50;56.80;;;;;;5053200;27;90193;-41
2022/04/18 08:13:29;;;;;;;14.18;11.32;;;16.00;55.40;;;;;;5053566;27;88945;-43
2022/04/18 08:15:56;;;;;;;12.63;11.05;;;15.80;52.40;;;;;;5042424;27;88120;-41
2022/04/18 08:18:22;;;;;;;13.23;11.52;;;15.70;51.40;;;;;;5040395;27;89309;-40
2022/04/18 08:20:47;;;;;;;12.82;10.75;;;16.10;54.70;;;;;;5039972;27;90094;-45
2022/04/18 08:23:13;;;;;;;12.20;9.57;;;15.90;54.10;;;;;;5040058;27;89413;-42
2022/04/18 08:25:38;;;;;;;12.15;10.95;;;16.20;52.50;;;;;;5040467;27;89085;-41
2022/04/18 08:28:04;;;;;;;11.45;9.55;;;16.40;53.60;;;;;;5040743;27;89574;-42
2022/04/18 08:30:30;;;;;;;10.45;8.82;;;16.50;52.70;;;;;;5040511;27;90874;-41
2022/04/18 08:32:56;;;;;;;9.98;8.98;;;16.30;52.00;;;;;;5041124;27;89355;-42
2022/04/18 08:35:22;;;;;;;11.20;8.90;;;16.50;51.30;;;;;;5041628;27;89027;-40
2022/04/18 08:37:48;;;;;;;11.52;9.38;;;16.30;49.20;;;;;;5040644;27;90210;-42
2022/04/18 08:40:14;;;;;;;15.63;8.57;;;16.20;48.80;;;;;;5041125;27;90758;-42
2022/04/18 08:42:41;;;;;;;11.15;9.32;;;16.40;50.00;;;;;;5040522;27;89708;-43
2022/04/18 08:45:10;;;;;;;10.60;9.05;;;16.90;49.80;;;;;;5041589;27;88065;-38
2022/04/18 08:53:11;;;;;;;8.98;7.65;;;17.00;46.00;;;;;;5041382;27;90121;-45
2022/04/18 08:55:37;;;;;;;9.70;8.43;;;17.20;47.60;;;;;;5040702;27;89268;-42
2022/04/18 08:58:04;;;;;;;12.07;9.77;;;17.20;46.80;;;;;;5041575;27;87661;-41
2022/04/18 09:00:29;;;;;;;7.30;6.57;;;17.70;48.80;;;;;;5041358;27;90294;-44
2022/04/18 09:02:55;;;;;;;8.90;7.85;;;17.60;46.60;;;;;;5040034;27;89527;-44
2022/04/18 09:05:21;;;;;;;9.23;8.30;;;17.60;45.70;;;;;;5041687;27;89260;-44
2022/04/18 09:08:01;;;;;;;10.32;8.20;;;17.20;45.30;;;;;;5040885;27;88552;-43
2022/04/18 09:10:27;;;;;;;7.80;7.03;;;17.20;44.30;;;;;;5041360;27;90234;-40
2022/04/18 09:12:54;;;;;;;7.80;7.05;;;17.60;45.70;;;;;;5039972;27;89471;-41
2022/04/18 09:15:33;;;;;;;11.85;8.90;;;17.60;45.30;;;;;;5041309;27;87665;-40
2022/04/18 09:18:28;;;;;;;9.35;8.55;;;17.90;45.50;;;;;;5040955;27;89026;-46
2022/04/18 09:20:56;;;;;;;8.45;7.65;;;18.00;44.00;;;;;;5041184;27;89298;-43
2022/04/18 09:23:32;;;;;;;7.70;6.85;;;17.90;44.60;;;;;;5040530;27;91268;-44
2022/04/18 09:26:04;;;;;;;12.02;8.93;;;17.90;42.70;;;;;;5040308;27;89238;-42
2022/04/18 09:28:32;;;;;;;8.95;7.38;;;18.10;44.30;;;;;;5039300;27;89323;-40
2022/04/18 09:31:05;;;;;;;12.80;8.40;;;18.70;45.50;;;;;;5040616;27;89999;-41
2022/04/18 09:33:38;;;;;;;13.75;8.32;;;19.30;44.80;;;;;;5040867;27;89688;-43
2022/04/18 09:36:11;;;;;;;9.65;8.18;;;19.60;45.30;;;;;;5040396;27;88480;-41
2022/04/18 09:38:39;;;;;;;9.32;7.10;;;18.80;45.40;;;;;;5040233;27;89824;-44
2022/04/18 09:41:06;;;;;;;9.77;8.05;;;18.50;44.10;;;;;;5040016;27;90214;-40
2022/04/18 09:43:43;;;;;;;9.05;7.18;;;18.80;44.90;;;;;;5040877;27;89653;-40
2022/04/18 09:46:10;;;;;;;8.43;7.28;;;19.20;44.20;;;;;;5040415;27;87637;-44
2022/04/18 09:48:36;;;;;;;10.98;7.57;;;18.90;43.50;;;;;;5039354;27;89139;-41
2022/04/18 09:51:13;;;;;;;10.75;7.90;;;18.70;43.10;;;;;;5039834;27;90791;-40
2022/04/18 09:53:41;;;;;;;8.25;7.38;;;19.70;45.50;;;;;;5040362;27;90478;-45
2022/04/18 09:56:08;;;;;;;8.77;7.88;;;19.10;42.30;;;;;;5041095;27;88184;-39
2022/04/18 09:58:35;;;;;;;10.93;8.48;;;19.00;41.80;;;;;;5040196;27;89780;-39
2022/04/18 10:01:03;;;;;;;8.00;7.28;;;19.40;43.00;;;;;;5039899;27;89618;-41
2022/04/18 10:03:30;;;;;;;11.13;9.13;;;19.50;42.70;;;;;;5040179;27;89562;-46
2022/04/18 10:05:58;;;;;;;9.43;8.45;;;19.10;43.60;;;;;;5040216;27;87576;-42
2022/04/18 10:08:24;;;;;;;8.50;7.40;;;19.30;44.30;;;;;;5040207;27;88323;-40
2022/04/18 10:10:49;;;;;;;9.65;7.63;;;19.10;43.20;;;;;;5040112;27;90697;-43
2022/04/18 10:13:16;;;;;;;8.73;7.85;;;19.50;42.20;;;;;;5040680;27;89868;-39
2022/04/18 10:15:41;;;;;;;10.18;7.75;;;19.30;42.60;;;;;;5040117;27;88922;-38
2022/04/18 10:18:10;;;;;;;11.68;7.88;;;19.20;42.40;;;;;;5040346;27;88651;-44
2022/04/18 10:20:54;;;;;;;9.55;8.65;;;19.40;43.00;;;;;;5039355;27;90212;-45
2022/04/18 10:23:43;;;;;;;8.48;7.30;;;19.20;41.10;;;;;;5039958;27;88739;-41
2022/04/18 10:26:42;;;;;;;8.20;7.40;;;19.50;40.00;;;;;;5039311;27;88685;-45
2022/04/18 10:29:13;;;;;;;7.53;6.85;;;19.70;39.70;;;;;;5040136;27;89946;-42
2022/04/18 10:31:42;;;;;;;7.93;6.55;;;20.20;41.50;;;;;;5039401;27;90606;-42
2022/04/18 10:34:12;;;;;;;8.50;6.97;;;20.60;40.60;;;;;;5039760;27;91010;-40
2022/04/18 10:36:50;;;;;;;6.95;6.35;;;20.00;38.90;;;;;;5040343;27;88338;-42
2022/04/18 10:39:15;;;;;;;8.82;6.43;;;20.30;39.60;;;;;;5040058;27;88339;-43
2022/04/18 10:41:46;;;;;;;6.68;5.35;;;20.30;40.70;;;;;;5037857;27;92551;-48
2022/04/18 10:44:12;;;;;;;7.25;6.55;;;20.00;38.60;;;;;;5038754;27;90602;-41
2022/04/18 10:46:56;;;;;;;6.93;6.25;;;19.80;39.20;;;;;;5039566;27;89950;-43
2022/04/18 10:49:26;;;;;;;5.63;5.13;;;19.70;38.80;;;;;;5039889;27;88493;-45
2022/04/18 10:51:53;;;;;;;8.13;6.60;;;20.10;39.20;;;;;;5039561;27;90472;-44
2022/04/18 10:54:25;;;;;;;9.27;6.43;;;19.30;38.20;;;;;;5039396;27;90802;-42
2022/04/18 10:56:57;;;;;;;8.88;7.25;;;19.70;39.00;;;;;;5039015;27;88319;-44
2022/04/18 10:59:30;;;;;;;7.32;6.13;;;19.70;39.30;;;;;;5039965;27;89521;-41
2022/04/18 11:02:02;;;;;;;8.43;7.28;;;19.80;38.90;;;;;;5039304;27;90267;-42
2022/04/18 11:04:34;;;;;;;7.30;6.47;;;19.80;39.20;;;;;;5039323;27;89534;-41
2022/04/18 11:07:03;;;;;;;7.25;6.55;;;19.60;39.50;;;;;;5039295;27;88025;-41
2022/04/18 11:09:30;;;;;;;7.60;6.82;;;20.00;39.40;;;;;;5039545;27;88212;-45
2022/04/18 11:12:20;;;;;;;6.47;5.80;;;19.70;40.60;;;;;;5038653;27;91170;-40
2022/04/18 11:15:02;;;;;;;7.13;6.43;;;19.50;38.00;;;;;;5038744;27;90492;-40
2022/04/18 11:17:42;;;;;;;12.43;6.43;;;19.60;39.30;;;;;;5039602;27;87607;-40
2022/04/18 11:20:37;;;;;;;7.32;6.28;;;19.10;39.10;;;;;;5038781;27;88614;-45
2022/04/18 11:23:19;;;;;;;6.97;6.32;;;19.20;40.00;;;;;;5037360;27;90039;-41
2022/04/18 11:25:55;;;;;;;7.88;7.07;;;19.20;38.00;;;;;;5038229;27;89541;-42
2022/04/18 11:28:21;;;;;;;6.28;5.53;;;19.30;38.70;;;;;;5039071;27;87716;-39
2022/04/18 11:30:47;;;;;;;7.05;6.35;;;19.40;39.30;;;;;;5038124;27;88331;-41
2022/04/18 11:33:13;;;;;;;6.32;5.78;;;19.50;38.90;;;;;;5038777;27;90283;-40
2022/04/18 11:35:39;;;;;;;7.90;5.85;;;19.70;38.20;;;;;;5038700;27;89252;-41
2022/04/18 11:38:09;;;;;;;5.93;5.32;;;19.40;37.20;;;;;;5039187;27;90003;-45
2022/04/18 11:40:39;;;;;;;7.88;5.93;;;19.50;38.20;;;;;;5038126;27;89377;-41
2022/04/18 11:43:16;;;;;;;6.60;5.53;;;19.50;37.90;;;;;;5038748;27;90243;-42
2022/04/18 11:45:42;;;;;;;7.10;6.35;;;19.70;37.40;;;;;;5038308;27;89683;-47
2022/04/18 11:48:11;;;;;;;6.32;5.72;;;19.40;40.20;;;;;;5038259;27;88557;-43
2022/04/18 11:50:41;;;;;;;11.63;7.00;;;19.00;39.70;;;;;;5039638;27;89599;-43
2022/04/18 11:53:09;;;;;;;6.45;5.85;;;18.90;41.30;;;;;;5042450;27;89974;-42
2022/04/18 11:55:50;;;;;;;10.32;5.70;;;19.20;38.80;;;;;;5040939;27;89130;-43
2022/04/18 11:58:21;;;;;;;7.40;6.40;;;19.50;39.80;;;;;;5042497;27;89571;-43
2022/04/18 12:09:07;;;;;;;6.57;5.90;;;19.40;40.60;;;;;;5042240;27;90404;-44
2022/04/18 12:11:36;;;;;;;12.15;6.63;;;19.60;39.20;;;;;;5042151;27;88543;-43
2022/04/18 12:14:01;;;;;;;7.43;6.50;;;19.50;40.20;;;;;;5041635;27;90243;-43
2022/04/18 12:16:27;;;;;;;8.65;6.38;;;19.20;38.40;;;;;;5040937;27;90168;-41
2022/04/18 12:18:54;;;;;;;5.45;4.93;;;19.20;37.40;;;;;;5042431;27;88442;-42
2022/04/18 12:21:20;;;;;;;6.88;6.00;;;19.40;38.30;;;;;;5041422;27;89218;-40
2022/04/18 12:23:53;;;;;;;6.65;6.05;;;19.30;39.90;;;;;;5040576;27;90291;-45
2022/04/18 12:26:18;;;;;;;9.90;6.47;;;19.30;39.80;;;;;;5041430;27;90120;-44
2022/04/18 12:28:44;;;;;;;7.07;5.78;;;19.50;38.90;;;;;;5041567;27;89125;-41
2022/04/18 12:31:10;;;;;;;7.55;6.32;;;19.60;39.40;;;;;;5041489;22;88643;-36
2022/04/18 12:33:49;;;;;;;6.57;5.97;;;19.40;39.90;;;;;;5000574;28;90491;-33
2022/04/18 12:36:33;;;;;;;6.50;5.90;;;19.70;39.50;;;;;;5000600;28;90416;-36
2022/04/18 12:39:00;;;;;;;7.20;5.85;;;19.40;38.50;;;;;;4999802;28;87764;-34
2022/04/18 12:41:37;;;;;;;8.07;5.85;;;19.60;38.20;;;;;;5000169;28;88858;-37
2022/04/18 12:44:13;;;;;;;8.20;6.05;;;19.60;39.50;;;;;;5000736;28;90408;-37
2022/04/18 12:46:40;;;;;;;6.97;6.28;;;19.40;39.10;;;;;;5000208;28;89836;-37
2022/04/18 12:49:08;;;;;;;7.03;6.32;;;19.00;39.70;;;;;;5000710;28;88003;-33
2022/04/18 12:51:38;;;;;;;9.00;7.72;;;19.00;40.20;;;;;;5001315;28;89088;-37
2022/04/18 12:54:05;;;;;;;9.27;7.10;;;19.00;40.60;;;;;;5001008;28;90512;-36
2022/04/18 12:56:33;;;;;;;7.13;6.53;;;18.90;40.50;;;;;;5000401;28;89614;-36
2022/04/18 12:59:01;;;;;;;6.72;6.07;;;18.90;39.70;;;;;;5000435;28;87642;-39
2022/04/18 13:01:34;;;;;;;6.57;5.85;;;19.20;41.40;;;;;;5000041;28;89394;-38
2022/04/18 13:04:00;;;;;;;8.18;5.38;;;19.40;40.90;;;;;;5000008;28;90201;-34
2022/04/18 13:06:32;;;;;;;6.95;6.18;;;19.30;39.20;;;;;;5000131;28;88550;-36
2022/04/18 13:09:09;;;;;;;6.90;6.30;;;19.20;38.70;;;;;;4998631;28;89835;-34